Time;durP1;ratioP1;P1;durP2;ratioP2;P2;SDS_P1;SDS_P2;PMS_P1;PMS_P2;Temp;Humidity;BMP_temperature;BMP_pressure;BME280_temperature;BME280_humidity;BME280_pressure;Samples;Min_cycle;Max_cycle;Signal;HPM_P1;HPM_P2
2023/02/16 00:00:30;;;;;;;18.47;14.57;;;3.40;99.90;;;;;;5107170;28;20249;-72
2023/02/16 00:02:58;;;;;;;19.50;15.13;;;3.40;99.90;;;;;;5088412;28;20305;-70
2023/02/16 00:05:26;;;;;;;25.13;14.47;;;3.40;99.90;;;;;;5088396;28;20212;-70
2023/02/16 00:07:54;;;;;;;18.93;14.70;;;3.40;99.90;;;;;;5088336;28;20294;-70
2023/02/16 00:10:23;;;;;;;30.77;14.90;;;3.30;99.90;;;;;;5108138;28;20396;-71
2023/02/16 00:15:34;;;;;;;38.43;15.00;;;3.10;99.90;;;;;;5088175;28;20194;-72
2023/02/16 00:18:04;;;;;;;19.37;14.10;;;3.20;99.90;;;;;;5091201;27;20697;-72
2023/02/16 00:20:32;;;;;;;19.33;14.13;;;3.10;99.90;;;;;;5108284;27;20218;-70
2023/02/16 00:22:59;;;;;;;21.03;14.47;;;3.10;99.90;;;;;;5107674;28;20739;-71
2023/02/16 00:25:27;;;;;;;18.30;14.03;;;3.10;99.90;;;;;;5108480;28;20291;-70
2023/02/16 00:27:56;;;;;;;22.60;14.23;;;3.00;99.90;;;;;;5108196;28;20329;-71
2023/02/16 00:30:23;;;;;;;21.07;14.80;;;3.00;99.90;;;;;;5107987;28;20229;-71
2023/02/16 00:32:50;;;;;;;17.17;14.00;;;2.90;99.90;;;;;;5095932;28;20207;-71
2023/02/16 00:35:18;;;;;;;17.00;14.17;;;2.90;99.90;;;;;;5093475;28;20607;-70
2023/02/16 00:37:47;;;;;;;16.03;14.03;;;2.80;99.90;;;;;;5107855;28;20206;-72
2023/02/16 00:40:15;;;;;;;15.37;13.77;;;2.90;99.90;;;;;;5108586;28;20294;-72
2023/02/16 00:42:45;;;;;;;16.93;14.10;;;2.90;99.90;;;;;;5107976;28;20226;-71
2023/02/16 00:45:16;;;;;;;15.90;14.20;;;3.00;99.90;;;;;;5108546;28;20230;-70
2023/02/16 00:47:45;;;;;;;16.30;14.13;;;3.00;99.90;;;;;;5107577;28;20763;-70
2023/02/16 00:50:17;;;;;;;15.87;13.60;;;2.90;99.90;;;;;;5128031;28;20206;-70
2023/02/16 00:52:45;;;;;;;16.03;13.53;;;2.90;99.90;;;;;;5097439;27;20293;-70
2023/02/16 00:55:14;;;;;;;15.43;13.73;;;2.90;99.90;;;;;;5103328;28;20320;-71
2023/02/16 00:57:45;;;;;;;17.10;13.60;;;2.90;99.90;;;;;;5108089;28;20791;-71
2023/02/16 01:00:16;;;;;;;15.50;13.73;;;2.90;99.90;;;;;;5108170;28;20293;-72
2023/02/16 01:02:45;;;;;;;15.70;13.37;;;2.90;99.90;;;;;;5107750;28;20281;-72
2023/02/16 01:05:12;;;;;;;15.77;13.93;;;3.00;99.90;;;;;;5110984;28;20216;-72
2023/02/16 01:13:11;;;;;;;16.50;12.80;;;3.00;99.90;;;;;;5093721;28;20229;-71
2023/02/16 01:15:38;;;;;;;17.37;13.63;;;3.00;99.90;;;;;;5087423;28;20305;-71
2023/02/16 01:18:06;;;;;;;15.40;13.27;;;3.00;99.90;;;;;;5109875;28;20202;-71
2023/02/16 01:20:35;;;;;;;15.80;12.77;;;3.00;99.90;;;;;;5110901;27;20249;-71
2023/02/16 01:23:02;;;;;;;14.90;12.50;;;3.00;99.90;;;;;;5107109;28;20721;-71
2023/02/16 01:25:29;;;;;;;15.30;12.53;;;3.00;99.90;;;;;;5108005;28;20313;-71
2023/02/16 01:27:56;;;;;;;15.93;13.67;;;3.00;99.90;;;;;;5107828;28;20216;-71
2023/02/16 01:30:26;;;;;;;16.60;13.23;;;3.00;99.90;;;;;;5107378;28;20296;-71
2023/02/16 01:32:53;;;;;;;20.67;15.70;;;3.00;99.90;;;;;;5106252;28;20245;-71
2023/02/16 01:35:20;;;;;;;17.63;14.13;;;3.00;99.90;;;;;;5107838;28;20307;-71
2023/02/16 01:37:48;;;;;;;15.00;13.10;;;3.00;99.90;;;;;;5107083;28;20306;-71
2023/02/16 01:40:25;;;;;;;16.00;12.90;;;3.00;99.90;;;;;;5107418;28;20722;-71
2023/02/16 01:42:58;;;;;;;14.10;11.77;;;3.00;99.90;;;;;;5096956;28;20645;-71
2023/02/16 01:45:32;;;;;;;16.27;12.67;;;3.00;99.90;;;;;;5087088;28;20240;-71
2023/02/16 01:48:04;;;;;;;15.07;12.67;;;3.10;99.90;;;;;;5099590;28;20743;-71
2023/02/16 01:50:42;;;;;;;14.90;12.40;;;3.10;99.90;;;;;;5127990;27;20301;-71
2023/02/16 01:53:18;;;;;;;15.57;12.73;;;3.20;99.90;;;;;;5128027;27;20219;-71
2023/02/16 01:55:48;;;;;;;15.70;12.67;;;3.20;99.90;;;;;;5129682;27;20648;-71
2023/02/16 01:58:20;;;;;;;16.00;12.83;;;3.20;99.90;;;;;;5131531;27;21070;-71
2023/02/16 02:01:35;;;;;;;14.63;11.93;;;3.30;99.90;;;;;;5130695;27;20236;-72
2023/02/16 02:06:47;;;;;;;16.20;12.53;;;3.30;99.90;;;;;;5090467;28;20710;-72
2023/02/16 02:09:20;;;;;;;16.37;12.30;;;3.30;99.90;;;;;;5090601;28;20301;-72
2023/02/16 02:11:53;;;;;;;17.87;12.73;;;3.30;99.90;;;;;;5090413;28;20269;-72
2023/02/16 02:14:24;;;;;;;15.30;11.77;;;3.30;99.90;;;;;;5090261;28;20230;-72
2023/02/16 02:16:57;;;;;;;15.47;11.87;;;3.30;99.90;;;;;;5108030;28;20229;-72
2023/02/16 02:19:24;;;;;;;16.73;12.00;;;3.30;99.90;;;;;;5124236;27;20647;-71
2023/02/16 02:25:23;;;;;;;14.80;11.63;;;3.30;99.90;;;;;;5090175;28;20239;-71
2023/02/16 02:27:57;;;;;;;16.57;12.57;;;3.40;99.90;;;;;;5095957;28;20675;-71
2023/02/16 02:30:37;;;;;;;16.37;12.33;;;3.40;99.90;;;;;;5109090;28;20663;-71
2023/02/16 02:33:19;;;;;;;15.10;11.77;;;3.40;99.90;;;;;;5110758;28;20362;-72
2023/02/16 02:35:51;;;;;;;15.87;12.63;;;3.40;99.90;;;;;;5110309;28;20217;-71
2023/02/16 02:38:25;;;;;;;16.97;13.00;;;3.40;99.90;;;;;;5110646;28;20281;-71
2023/02/16 02:40:59;;;;;;;16.73;12.33;;;3.40;99.90;;;;;;5110503;28;20262;-71
2023/02/16 02:43:31;;;;;;;15.27;12.53;;;3.40;99.90;;;;;;5110561;28;20269;-72
2023/02/16 02:46:03;;;;;;;13.87;11.63;;;3.30;99.90;;;;;;5109449;28;20679;-71
2023/02/16 02:48:31;;;;;;;14.43;12.17;;;3.40;99.90;;;;;;5115521;27;20239;-71
2023/02/16 03:00:39;;;;;;;14.37;11.77;;;3.40;99.90;;;;;;5109662;28;20292;-71
2023/02/16 03:02:10;;;;;;;14.10;11.07;;;3.30;99.90;;;;;;5110069;28;20193;-71
2023/02/16 03:04:37;;;;;;;13.97;11.67;;;3.30;99.90;;;;;;5109999;28;20296;-72
2023/02/16 03:07:06;;;;;;;13.47;10.27;;;3.30;99.90;;;;;;5110087;28;20201;-71
2023/02/16 03:09:33;;;;;;;13.87;11.03;;;3.40;99.90;;;;;;5119851;27;20300;-70
2023/02/16 03:15:01;;;;;;;15.97;12.23;;;3.40;99.90;;;;;;5082885;28;20804;-70
2023/02/16 03:31:30;;;;;;;12.60;10.80;;;3.30;99.90;;;;;;5104323;28;20283;-70
2023/02/16 03:33:57;;;;;;;12.97;10.87;;;3.30;99.90;;;;;;5109050;28;20215;-70
2023/02/16 03:36:27;;;;;;;13.30;10.40;;;3.30;99.90;;;;;;5109109;28;20234;-70
2023/02/16 03:38:55;;;;;;;13.10;10.80;;;3.30;99.90;;;;;;5108494;28;20292;-71
2023/02/16 03:41:22;;;;;;;12.10;10.43;;;3.30;99.90;;;;;;5109314;28;20237;-71
2023/02/16 03:43:49;;;;;;;13.40;11.17;;;3.20;99.90;;;;;;5090315;28;20308;-71
2023/02/16 03:46:16;;;;;;;12.87;10.37;;;3.10;99.90;;;;;;5088746;28;20289;-72
2023/02/16 03:48:45;;;;;;;13.20;10.87;;;3.10;99.90;;;;;;5095313;28;20323;-72
2023/02/16 03:51:11;;;;;;;12.13;10.53;;;3.00;99.90;;;;;;5108870;28;20233;-72
2023/02/16 03:53:38;;;;;;;13.63;10.97;;;3.00;99.90;;;;;;5115023;27;20663;-72
2023/02/16 03:56:06;;;;;;;12.90;10.63;;;2.90;99.90;;;;;;5108689;27;20646;-72
2023/02/16 03:58:33;;;;;;;12.83;10.77;;;2.90;99.90;;;;;;5108844;28;20261;-72
2023/02/16 04:01:00;;;;;;;12.63;10.50;;;2.90;99.90;;;;;;5108357;28;20209;-72
2023/02/16 04:03:27;;;;;;;13.10;10.47;;;2.80;99.90;;;;;;5108723;28;20306;-72
2023/02/16 04:05:56;;;;;;;12.00;10.50;;;2.90;99.90;;;;;;5108126;28;20218;-72
2023/02/16 04:08:23;;;;;;;13.23;11.27;;;3.00;99.90;;;;;;5108496;28;20202;-72
2023/02/16 04:10:50;;;;;;;14.40;10.93;;;3.00;99.90;;;;;;5108594;28;20680;-71
2023/02/16 04:13:15;;;;;;;13.53;10.70;;;3.10;99.90;;;;;;5108493;28;20339;-71
2023/02/16 04:15:42;;;;;;;11.97;10.60;;;3.10;99.90;;;;;;5108405;28;20289;-73
2023/02/16 04:18:09;;;;;;;11.40;10.20;;;3.20;99.90;;;;;;5110512;27;20719;-72
2023/02/16 04:20:36;;;;;;;11.83;10.13;;;3.20;99.90;;;;;;5121163;27;20198;-72
2023/02/16 04:23:05;;;;;;;11.33;9.60;;;3.20;99.90;;;;;;5108150;28;20263;-73
2023/02/16 04:25:31;;;;;;;10.80;9.73;;;3.20;99.90;;;;;;5108579;28;20234;-72
2023/02/16 04:27:58;;;;;;;10.87;9.80;;;3.20;99.90;;;;;;5108288;28;20297;-72
2023/02/16 04:30:28;;;;;;;12.10;10.03;;;3.20;99.90;;;;;;5108090;28;20289;-72
2023/02/16 04:32:56;;;;;;;12.00;9.30;;;3.20;99.90;;;;;;5107902;28;20224;-71
2023/02/16 04:35:23;;;;;;;11.27;9.83;;;3.20;99.90;;;;;;5108224;27;20234;-71
2023/02/16 04:37:50;;;;;;;11.57;10.20;;;3.20;99.90;;;;;;5090292;28;20264;-72
2023/02/16 04:40:18;;;;;;;11.60;10.10;;;3.20;99.90;;;;;;5088327;28;20294;-73
2023/02/16 04:42:46;;;;;;;10.83;9.67;;;3.20;99.90;;;;;;5094437;28;20203;-73
2023/02/16 04:45:13;;;;;;;10.43;9.20;;;3.20;99.90;;;;;;5099146;28;20236;-72
2023/02/16 04:47:40;;;;;;;11.00;9.47;;;3.20;99.90;;;;;;5095974;28;20288;-72
2023/02/16 04:50:08;;;;;;;11.90;9.83;;;3.20;99.90;;;;;;5101253;27;20312;-72
2023/02/16 04:52:37;;;;;;;11.47;9.63;;;3.20;99.90;;;;;;5095590;28;20257;-73
2023/02/16 04:55:04;;;;;;;13.40;9.63;;;3.20;99.90;;;;;;5092968;28;20736;-69
2023/02/16 04:57:32;;;;;;;13.93;10.07;;;3.10;99.90;;;;;;5097866;28;20197;-71
2023/02/16 04:59:59;;;;;;;10.30;8.83;;;3.10;99.90;;;;;;5102277;28;20237;-72
2023/02/16 05:02:26;;;;;;;11.03;9.40;;;3.10;99.90;;;;;;5106117;28;20210;-72
2023/02/16 05:04:53;;;;;;;10.63;9.13;;;3.00;99.90;;;;;;5105754;28;20636;-72
2023/02/16 05:07:20;;;;;;;11.40;9.40;;;2.90;99.90;;;;;;5105839;28;20629;-72
2023/02/16 05:09:47;;;;;;;10.83;9.23;;;2.90;99.90;;;;;;5096564;28;20285;-72
2023/02/16 05:15:02;;;;;;;10.40;9.37;;;2.90;99.90;;;;;;5095643;28;20444;-72
2023/02/16 05:17:29;;;;;;;10.43;8.83;;;2.90;99.90;;;;;;5102307;28;20223;-72
2023/02/16 05:19:57;;;;;;;11.83;9.87;;;2.90;99.90;;;;;;5123239;28;20581;-72
2023/02/16 05:22:27;;;;;;;11.97;9.40;;;2.90;99.90;;;;;;5096885;27;20312;-72
2023/02/16 05:24:54;;;;;;;13.30;9.80;;;2.90;99.90;;;;;;5095936;28;20209;-71
2023/02/16 05:27:22;;;;;;;10.73;8.80;;;2.90;99.90;;;;;;5096361;28;20293;-70
2023/02/16 05:29:49;;;;;;;11.00;9.80;;;2.80;99.90;;;;;;5099392;28;20201;-73
2023/02/16 05:32:18;;;;;;;12.60;9.43;;;2.80;99.90;;;;;;5106203;28;20222;-71
2023/02/16 05:34:45;;;;;;;12.27;9.13;;;2.80;99.90;;;;;;5094555;28;20252;-71
2023/02/16 05:37:13;;;;;;;10.07;9.07;;;2.80;99.90;;;;;;5100946;28;20245;-71
2023/02/16 05:39:40;;;;;;;10.97;9.30;;;2.80;99.90;;;;;;5094444;28;20203;-72
2023/02/16 05:42:06;;;;;;;10.07;9.07;;;2.90;99.90;;;;;;5099984;28;20294;-72
2023/02/16 05:44:33;;;;;;;12.43;10.27;;;2.80;99.90;;;;;;5098324;28;20207;-72
2023/02/16 05:47:00;;;;;;;9.73;8.67;;;2.80;99.90;;;;;;5104174;28;20310;-72
2023/02/16 05:49:29;;;;;;;10.17;9.13;;;2.70;99.90;;;;;;5108674;27;20292;-71
2023/02/16 05:51:55;;;;;;;11.27;9.03;;;2.70;99.90;;;;;;5099692;28;20244;-71
2023/02/16 05:54:22;;;;;;;11.40;9.57;;;2.80;99.90;;;;;;5103124;28;20292;-71
2023/02/16 05:56:52;;;;;;;10.70;9.57;;;2.80;99.90;;;;;;5090209;28;20301;-71
2023/02/16 05:59:19;;;;;;;12.70;9.83;;;2.80;99.90;;;;;;5090236;28;20297;-72
2023/02/16 06:01:47;;;;;;;11.27;9.50;;;2.90;99.90;;;;;;5089182;28;20293;-71
2023/02/16 06:04:14;;;;;;;10.53;9.33;;;2.90;99.90;;;;;;5089303;28;20743;-71
2023/02/16 06:06:42;;;;;;;12.27;9.47;;;2.90;99.90;;;;;;5097832;28;20595;-71
2023/02/16 06:09:10;;;;;;;9.97;8.97;;;2.90;99.90;;;;;;5105767;28;20237;-71
2023/02/16 06:11:37;;;;;;;11.53;9.43;;;2.90;99.90;;;;;;5109429;28;20754;-71
2023/02/16 06:14:08;;;;;;;10.50;9.40;;;2.90;99.90;;;;;;5110607;28;20297;-72
2023/02/16 06:16:37;;;;;;;11.33;9.83;;;2.90;99.90;;;;;;5110925;28;20315;-71
2023/02/16 06:19:05;;;;;;;10.97;9.27;;;2.90;99.90;;;;;;5120979;27;20211;-71
2023/02/16 06:21:32;;;;;;;9.47;8.43;;;2.90;99.90;;;;;;5130941;27;20227;-74
2023/02/16 06:24:01;;;;;;;10.00;9.00;;;2.90;99.90;;;;;;5130355;27;20205;-71
2023/02/16 06:26:28;;;;;;;9.60;8.50;;;2.90;99.90;;;;;;5131371;27;20699;-71
2023/02/16 06:28:55;;;;;;;9.83;8.83;;;2.90;99.90;;;;;;5131064;27;20391;-71
2023/02/16 06:31:23;;;;;;;12.80;8.97;;;2.80;99.90;;;;;;5104859;27;20205;-71
2023/02/16 06:33:50;;;;;;;10.67;9.40;;;2.70;99.90;;;;;;5089761;28;20704;-71
2023/02/16 06:36:18;;;;;;;10.97;9.37;;;2.60;99.90;;;;;;5090129;28;20297;-71
2023/02/16 06:38:45;;;;;;;10.97;9.07;;;2.50;99.90;;;;;;5094826;28;20726;-72
2023/02/16 06:41:29;;;;;;;10.27;9.13;;;2.60;99.90;;;;;;5109701;27;20288;-71
2023/02/16 06:43:57;;;;;;;10.87;9.30;;;2.60;99.90;;;;;;5110214;28;20221;-71
2023/02/16 06:46:24;;;;;;;11.80;8.87;;;2.60;99.90;;;;;;5110512;28;20202;-71
2023/02/16 06:48:51;;;;;;;11.13;9.20;;;2.70;99.90;;;;;;5118510;27;20244;-71
2023/02/16 06:51:18;;;;;;;12.40;9.57;;;2.70;99.90;;;;;;5131301;27;20282;-71
2023/02/16 06:53:46;;;;;;;12.93;10.03;;;2.70;99.90;;;;;;5117483;27;20232;-71
2023/02/16 06:56:14;;;;;;;10.73;9.03;;;2.80;99.90;;;;;;5131030;27;20282;-71
2023/02/16 06:58:41;;;;;;;11.33;10.00;;;2.80;99.90;;;;;;5130533;27;20210;-71
2023/02/16 07:01:08;;;;;;;13.50;9.90;;;2.90;99.90;;;;;;5128285;27;20301;-71
2023/02/16 07:03:35;;;;;;;10.43;9.37;;;2.90;99.90;;;;;;5109922;28;20288;-71
2023/02/16 07:06:02;;;;;;;12.57;10.50;;;2.90;99.90;;;;;;5110144;28;20236;-71
2023/02/16 07:08:29;;;;;;;11.17;9.90;;;2.90;99.90;;;;;;5109340;28;20704;-72
2023/02/16 07:10:56;;;;;;;12.07;9.47;;;2.90;99.90;;;;;;5109717;28;20305;-71
2023/02/16 07:13:24;;;;;;;11.07;9.30;;;3.00;99.90;;;;;;5109414;28;20249;-71
2023/02/16 07:15:51;;;;;;;10.47;9.20;;;3.00;99.90;;;;;;5109497;28;20206;-72
2023/02/16 07:18:18;;;;;;;11.27;9.10;;;3.00;99.90;;;;;;5113433;27;20681;-71
2023/02/16 07:20:45;;;;;;;10.87;9.40;;;3.00;99.90;;;;;;5130234;27;20289;-71
2023/02/16 07:23:12;;;;;;;11.70;9.87;;;3.00;99.90;;;;;;5112057;27;20241;-71
2023/02/16 07:25:40;;;;;;;11.73;9.83;;;3.00;99.90;;;;;;5109041;28;20273;-71
2023/02/16 07:28:07;;;;;;;13.40;10.13;;;3.10;99.90;;;;;;5107356;28;20285;-71
2023/02/16 07:30:35;;;;;;;13.30;9.63;;;3.10;99.90;;;;;;5090183;28;20285;-71
2023/02/16 07:33:02;;;;;;;12.77;9.83;;;3.20;99.90;;;;;;5088841;28;20321;-71
2023/02/16 07:35:29;;;;;;;12.37;9.40;;;3.20;99.90;;;;;;5088752;28;20706;-71
2023/02/16 07:37:56;;;;;;;11.87;10.33;;;3.30;99.90;;;;;;5089528;28;20202;-72
2023/02/16 07:40:23;;;;;;;11.60;9.80;;;3.30;99.90;;;;;;5107212;28;20312;-71
2023/02/16 07:42:50;;;;;;;11.57;9.77;;;3.30;99.90;;;;;;5109104;28;20209;-71
2023/02/16 07:45:17;;;;;;;13.87;9.90;;;3.40;99.90;;;;;;5105668;28;20233;-71
2023/02/16 07:47:45;;;;;;;12.10;10.63;;;3.40;99.90;;;;;;5088378;28;20238;-71
2023/02/16 07:50:12;;;;;;;13.10;10.57;;;3.40;99.90;;;;;;5094451;27;20289;-71
2023/02/16 07:52:39;;;;;;;12.63;10.50;;;3.50;99.90;;;;;;5100560;28;20305;-71
2023/02/16 07:55:06;;;;;;;12.87;10.73;;;3.50;99.90;;;;;;5088301;28;20278;-71
2023/02/16 07:57:33;;;;;;;12.67;10.43;;;3.60;99.90;;;;;;5106861;28;20219;-71
2023/02/16 08:00:00;;;;;;;15.67;11.00;;;3.60;99.90;;;;;;5108712;28;20255;-72
2023/02/16 08:02:27;;;;;;;13.43;11.10;;;3.60;99.90;;;;;;5099458;28;20238;-71
2023/02/16 08:04:55;;;;;;;13.23;11.13;;;3.60;99.90;;;;;;5090648;28;20298;-71
2023/02/16 08:07:22;;;;;;;14.47;11.17;;;3.60;99.90;;;;;;5108561;27;20209;-71
2023/02/16 08:09:49;;;;;;;13.07;11.03;;;3.70;99.90;;;;;;5108236;28;20746;-71
2023/02/16 08:12:16;;;;;;;13.77;11.33;;;3.70;99.90;;;;;;5108272;28;20218;-71
2023/02/16 08:14:45;;;;;;;13.10;10.63;;;3.70;99.90;;;;;;5101181;27;20306;-71
2023/02/16 08:17:13;;;;;;;14.10;11.63;;;3.70;99.90;;;;;;5088103;28;20832;-71
2023/02/16 08:19:40;;;;;;;13.80;11.53;;;3.80;99.90;;;;;;5118637;27;20296;-71
2023/02/16 08:22:08;;;;;;;16.23;12.57;;;3.80;99.90;;;;;;5128889;27;20197;-72
2023/02/16 08:24:36;;;;;;;15.60;12.50;;;3.80;99.90;;;;;;5122896;27;20225;-71
2023/02/16 08:27:05;;;;;;;16.60;12.83;;;3.90;99.90;;;;;;5108353;28;20226;-71
2023/02/16 08:29:32;;;;;;;15.77;12.67;;;3.90;99.90;;;;;;5107853;28;20205;-71
2023/02/16 08:32:00;;;;;;;17.03;13.30;;;4.00;99.90;;;;;;5101563;28;20289;-71
2023/02/16 08:34:27;;;;;;;18.00;11.90;;;4.10;99.90;;;;;;5108495;28;20236;-72
2023/02/16 08:36:55;;;;;;;15.83;12.57;;;4.20;99.90;;;;;;5107982;28;20307;-72
2023/02/16 08:39:25;;;;;;;15.60;12.43;;;4.20;99.90;;;;;;5089134;28;20637;-72
2023/02/16 08:41:53;;;;;;;15.67;12.30;;;4.30;99.90;;;;;;5092900;28;20203;-72
2023/02/16 08:44:22;;;;;;;14.63;11.27;;;4.30;99.90;;;;;;5088086;28;20294;-72
2023/02/16 08:46:50;;;;;;;17.27;13.03;;;4.40;99.90;;;;;;5096663;28;20242;-71
2023/02/16 08:49:18;;;;;;;17.97;12.00;;;4.50;99.90;;;;;;5101076;28;20195;-71
2023/02/16 08:51:47;;;;;;;16.43;12.70;;;4.60;99.90;;;;;;5090736;28;20594;-72
2023/02/16 08:54:16;;;;;;;15.93;13.10;;;4.60;99.90;;;;;;5093004;28;20667;-71
2023/02/16 08:56:45;;;;;;;15.67;12.83;;;4.70;99.90;;;;;;5108234;28;20620;-72
2023/02/16 08:59:13;;;;;;;16.67;12.93;;;4.80;99.90;;;;;;5108413;28;20215;-71
2023/02/16 09:01:40;;;;;;;15.17;12.57;;;4.90;99.90;;;;;;5101743;28;20606;-72
2023/02/16 09:04:07;;;;;;;17.63;13.47;;;5.00;99.90;;;;;;5089322;28;20202;-71
2023/02/16 09:06:37;;;;;;;17.07;13.73;;;5.00;99.90;;;;;;5092092;28;20658;-72
2023/02/16 09:09:04;;;;;;;16.93;13.67;;;5.20;99.90;;;;;;5091119;28;20301;-71
2023/02/16 09:11:32;;;;;;;17.67;13.37;;;5.20;99.90;;;;;;5091436;28;20234;-72
2023/02/16 09:14:01;;;;;;;17.23;13.40;;;5.30;99.90;;;;;;5091415;28;20313;-72
2023/02/16 09:16:32;;;;;;;16.63;13.83;;;5.40;99.90;;;;;;5105812;28;20566;-71
2023/02/16 09:19:01;;;;;;;16.20;13.63;;;5.50;99.90;;;;;;5121122;27;20545;-72
2023/02/16 09:21:31;;;;;;;18.53;14.00;;;5.60;99.90;;;;;;5131829;27;20567;-72
2023/02/16 09:23:59;;;;;;;15.57;13.07;;;5.70;99.90;;;;;;5111554;27;20209;-72
2023/02/16 09:26:28;;;;;;;19.10;14.77;;;5.90;99.90;;;;;;5111931;28;20238;-72
2023/02/16 09:28:55;;;;;;;18.57;14.00;;;6.00;99.90;;;;;;5111484;28;20289;-72
2023/02/16 09:31:26;;;;;;;21.00;14.53;;;6.20;99.90;;;;;;5114137;27;20213;-72
2023/02/16 09:33:54;;;;;;;19.77;14.87;;;6.30;99.90;;;;;;5111393;28;20217;-72
2023/02/16 09:36:22;;;;;;;18.87;14.20;;;6.40;99.90;;;;;;5111687;28;20201;-71
2023/02/16 09:38:49;;;;;;;20.20;14.07;;;6.60;99.90;;;;;;5111146;28;20202;-72
2023/02/16 09:41:27;;;;;;;17.37;14.00;;;6.70;99.90;;;;;;5111308;28;20309;-72
2023/02/16 09:43:59;;;;;;;19.70;14.43;;;6.80;99.90;;;;;;5111181;28;20206;-72
2023/02/16 09:46:29;;;;;;;18.97;14.50;;;6.90;99.90;;;;;;5111306;28;20656;-72
2023/02/16 09:48:57;;;;;;;22.03;15.77;;;7.00;99.90;;;;;;5110444;27;20289;-72
2023/02/16 09:51:29;;;;;;;15.43;13.77;;;7.00;99.90;;;;;;5111223;28;20564;-72
2023/02/16 09:54:00;;;;;;;18.60;14.40;;;7.20;99.90;;;;;;5110417;28;20309;-72
2023/02/16 09:56:32;;;;;;;19.00;14.90;;;7.30;99.90;;;;;;5111295;28;20568;-72
2023/02/16 09:59:05;;;;;;;20.23;14.57;;;7.50;99.90;;;;;;5110255;28;20344;-72
2023/02/16 10:01:41;;;;;;;19.17;14.30;;;7.60;99.90;;;;;;5107464;28;20199;-72
2023/02/16 10:04:22;;;;;;;21.93;15.77;;;7.70;99.90;;;;;;5110837;28;20186;-72
2023/02/16 10:07:00;;;;;;;20.13;14.50;;;7.80;99.90;;;;;;5111024;28;20258;-72
2023/02/16 10:09:29;;;;;;;18.93;14.17;;;7.90;99.90;;;;;;5111086;27;20198;-72
2023/02/16 10:12:01;;;;;;;18.60;14.97;;;7.90;99.90;;;;;;5110489;28;20585;-73
2023/02/16 10:14:33;;;;;;;20.53;15.60;;;7.90;99.90;;;;;;5110606;28;20254;-72
2023/02/16 10:17:11;;;;;;;20.00;15.13;;;7.90;99.90;;;;;;5109872;28;20202;-72
2023/02/16 10:19:43;;;;;;;19.53;14.50;;;8.00;99.90;;;;;;5114020;27;20621;-72
2023/02/16 10:22:14;;;;;;;17.80;14.53;;;8.10;99.90;;;;;;5110979;28;20271;-72
2023/02/16 10:24:50;;;;;;;19.33;14.33;;;8.10;99.90;;;;;;5110375;28;20197;-73
2023/02/16 10:27:19;;;;;;;18.90;14.73;;;8.10;99.90;;;;;;5117148;27;20542;-72
2023/02/16 10:29:46;;;;;;;19.37;14.47;;;8.10;99.90;;;;;;5110515;27;20687;-72
2023/02/16 10:32:54;;;;;;;20.87;14.57;;;8.10;99.90;;;;;;5110409;28;20202;-72
2023/02/16 10:35:29;;;;;;;18.30;14.13;;;8.30;99.90;;;;;;5110563;28;20224;-72
2023/02/16 10:38:04;;;;;;;19.77;14.83;;;8.40;99.90;;;;;;5110075;28;20309;-72
2023/02/16 10:40:44;;;;;;;19.13;14.87;;;8.60;99.90;;;;;;5104846;28;20194;-72
2023/02/16 10:46:40;;;;;;;21.67;15.33;;;8.80;99.90;;;;;;5110160;28;20268;-72
2023/02/16 10:49:11;;;;;;;22.23;15.13;;;8.80;99.90;;;;;;5115181;27;20627;-72
2023/02/16 10:51:40;;;;;;;21.33;15.47;;;8.80;99.90;;;;;;5109641;28;20727;-72
2023/02/16 10:54:13;;;;;;;21.57;15.57;;;8.90;99.90;;;;;;5109295;28;20222;-72
2023/02/16 10:56:52;;;;;;;20.17;14.77;;;9.00;99.90;;;;;;5090442;28;20197;-72
2023/02/16 10:59:22;;;;;;;19.47;14.30;;;9.00;99.90;;;;;;5089372;28;20282;-72
2023/02/16 11:01:51;;;;;;;19.30;14.83;;;9.10;99.90;;;;;;5096653;28;20202;-72
2023/02/16 11:04:34;;;;;;;19.17;14.87;;;9.20;99.90;;;;;;5103612;28;20195;-71
2023/02/16 11:07:03;;;;;;;18.37;15.23;;;9.30;99.90;;;;;;5089862;28;20206;-72
2023/02/16 11:09:31;;;;;;;23.20;16.10;;;9.20;99.90;;;;;;5089227;28;20207;-72
2023/02/16 11:11:58;;;;;;;21.87;15.43;;;9.20;99.90;;;;;;5089168;28;20701;-72
2023/02/16 11:14:29;;;;;;;20.30;15.50;;;9.20;99.90;;;;;;5089060;28;20743;-72
2023/02/16 11:17:09;;;;;;;22.43;15.93;;;9.30;99.90;;;;;;5107512;28;20194;-72
2023/02/16 11:19:39;;;;;;;18.93;15.27;;;9.30;99.90;;;;;;5124644;27;20204;-72
2023/02/16 11:22:07;;;;;;;21.23;15.13;;;9.40;99.90;;;;;;5130218;27;20233;-72
2023/02/16 11:24:36;;;;;;;20.13;15.43;;;9.40;99.90;;;;;;5121066;27;20221;-72
2023/02/16 11:27:07;;;;;;;20.37;15.23;;;9.60;99.90;;;;;;5088515;28;20203;-72
2023/02/16 11:29:43;;;;;;;18.73;14.97;;;9.70;99.90;;;;;;5097419;28;20198;-72
2023/02/16 11:32:12;;;;;;;20.40;15.60;;;9.70;99.90;;;;;;5109069;27;20282;-73
2023/02/16 11:34:44;;;;;;;18.37;15.13;;;9.70;99.90;;;;;;5109841;27;20718;-73
2023/02/16 11:37:16;;;;;;;18.53;15.57;;;9.80;99.90;;;;;;5097380;28;20191;-72
2023/02/16 11:39:50;;;;;;;21.27;16.03;;;10.00;99.90;;;;;;5088413;28;20240;-74
2023/02/16 11:42:31;;;;;;;20.10;16.17;;;10.20;99.90;;;;;;5088956;28;20233;-73
2023/02/16 11:45:00;;;;;;;20.60;15.17;;;10.30;99.90;;;;;;5090718;28;20282;-72
2023/02/16 11:47:30;;;;;;;23.40;16.03;;;10.30;99.90;;;;;;5108688;28;20280;-73
2023/02/16 11:50:22;;;;;;;22.03;15.50;;;10.50;99.90;;;;;;5124050;27;20209;-73
2023/02/16 11:52:51;;;;;;;20.13;15.67;;;10.60;99.90;;;;;;5108351;28;20194;-73
2023/02/16 11:55:22;;;;;;;17.67;14.70;;;10.70;99.90;;;;;;5105641;28;20233;-73
2023/02/16 11:57:50;;;;;;;18.50;15.10;;;10.80;99.90;;;;;;5108907;28;20190;-73
2023/02/16 12:00:20;;;;;;;18.70;14.97;;;10.90;99.90;;;;;;5108348;28;20202;-73
2023/02/16 12:03:14;;;;;;;17.83;14.93;;;10.90;99.90;;;;;;5092902;28;20269;-73
2023/02/16 12:05:53;;;;;;;18.83;15.53;;;11.00;99.90;;;;;;5101027;28;20199;-73
2023/02/16 12:08:42;;;;;;;21.23;15.50;;;11.10;99.90;;;;;;5108307;28;20194;-73
2023/02/16 12:11:24;;;;;;;17.57;14.57;;;11.20;99.90;;;;;;5108442;28;20221;-73
2023/02/16 12:14:04;;;;;;;18.60;15.10;;;11.30;99.90;;;;;;5108606;28;20562;-73
2023/02/16 12:16:39;;;;;;;19.50;15.63;;;11.40;99.90;;;;;;5108282;27;20246;-73
2023/02/16 12:19:23;;;;;;;18.70;14.90;;;11.50;99.90;;;;;;5113409;27;20201;-73
2023/02/16 12:21:58;;;;;;;17.87;15.03;;;11.60;99.90;;;;;;5112154;27;20210;-73
2023/02/16 12:24:38;;;;;;;20.47;15.53;;;11.70;99.90;;;;;;5108384;28;20258;-73
2023/02/16 12:27:09;;;;;;;20.40;16.27;;;11.70;99.90;;;;;;5108859;28;20756;-73
2023/02/16 12:29:52;;;;;;;20.27;15.70;;;11.80;99.90;;;;;;5096344;28;20281;-73
2023/02/16 12:32:39;;;;;;;17.83;15.10;;;11.90;99.90;;;;;;5101788;28;20209;-73
2023/02/16 12:35:30;;;;;;;22.37;15.47;;;12.00;99.90;;;;;;5108242;28;20702;-73
2023/02/16 12:38:07;;;;;;;22.23;15.73;;;12.10;99.90;;;;;;5108082;28;20206;-73
2023/02/16 12:40:47;;;;;;;21.57;15.50;;;12.10;99.90;;;;;;5105989;28;20374;-73
2023/02/16 12:43:32;;;;;;;18.93;15.17;;;12.00;99.90;;;;;;5107088;28;20241;-73
2023/02/16 12:46:05;;;;;;;18.97;13.90;;;11.90;99.90;;;;;;5099183;28;20672;-73
2023/02/16 12:48:41;;;;;;;19.87;15.10;;;11.70;99.90;;;;;;5093446;28;20240;-73
2023/02/16 12:51:15;;;;;;;18.13;14.67;;;11.60;99.90;;;;;;5106997;28;20698;-73
2023/02/16 12:53:51;;;;;;;20.43;14.63;;;11.60;99.90;;;;;;5094437;28;20480;-73
2023/02/16 12:56:25;;;;;;;22.97;15.17;;;11.70;99.90;;;;;;5107840;28;20217;-73
2023/02/16 12:59:03;;;;;;;20.40;14.87;;;11.90;99.90;;;;;;5108231;27;20206;-73
2023/02/16 13:01:34;;;;;;;17.83;14.30;;;12.10;99.90;;;;;;5108002;28;20255;-73
2023/02/16 13:04:07;;;;;;;22.57;15.57;;;12.20;99.90;;;;;;5107899;28;20259;-73
2023/02/16 13:06:43;;;;;;;21.47;14.23;;;12.30;99.90;;;;;;5107971;28;20256;-73
2023/02/16 13:09:28;;;;;;;20.87;15.17;;;12.30;99.90;;;;;;5107265;28;20237;-72
2023/02/16 13:11:59;;;;;;;18.30;14.67;;;12.20;99.90;;;;;;5108085;28;20233;-73
2023/02/16 13:14:31;;;;;;;19.43;14.17;;;12.30;99.90;;;;;;5107836;28;20222;-73
2023/02/16 13:17:01;;;;;;;18.43;14.23;;;12.40;99.90;;;;;;5109206;28;20210;-73
2023/02/16 13:19:29;;;;;;;18.43;14.53;;;12.40;99.90;;;;;;5118996;28;20243;-73
2023/02/16 13:22:31;;;;;;;18.20;13.73;;;12.50;99.90;;;;;;5107255;28;20731;-73
2023/02/16 13:25:30;;;;;;;18.13;14.27;;;12.60;99.90;;;;;;5107234;28;20325;-73
2023/02/16 13:28:05;;;;;;;20.47;14.63;;;12.70;99.90;;;;;;5041028;28;20244;-73
2023/02/16 13:31:03;;;;;;;21.47;15.37;;;12.90;99.90;;;;;;5106247;28;20272;-73
2023/02/16 13:34:00;;;;;;;19.53;14.00;;;13.00;99.90;;;;;;5107679;28;20195;-73
2023/02/16 13:36:42;;;;;;;24.53;13.73;;;13.20;99.90;;;;;;5107843;28;20275;-73
2023/02/16 13:39:54;;;;;;;19.87;14.87;;;13.10;99.90;;;;;;5107468;28;20281;-73
2023/02/16 13:42:56;;;;;;;19.40;14.70;;;13.20;99.90;;;;;;5087417;28;20287;-73